Terminal Aerodrome Forecast
Issued by NWS Wilmington, OH

Current Version | Previous Version | Graphics & Text | Print | Product List | Glossary On
Versions: 1 2 3 4 5 6 7 8 9 10 11 12 13 14 15 16 17 18 19 20 21 22 23 24 25 26 27 28 29 30 31 32 33
000
FTUS41 KILN 151400 AAA
TAFCVG
TAF AMD
KCVG 151457Z 1515/1618 08014G22KT P6SM BKN050
     FM160000 10012KT P6SM OVC040
     FM160600 11011KT P6SM VCSH OVC040
     FM161200 12012KT P6SM -SHRA OVC040=

USA.gov is the U.S. government's official web portal to all federal, state and local government web resources and services.